sensor_id;sensor_type;location;lat;lon;timestamp;P1;durP1;ratioP1;P2;durP2;ratioP2
9392;SDS011;4736;52.508;13.422;2023-09-19T00:02:33;3.80;;;3.50;;
9392;SDS011;4736;52.508;13.422;2023-09-19T00:05:38;3.73;;;3.60;;
9392;SDS011;4736;52.508;13.422;2023-09-19T00:08:46;4.27;;;3.87;;
9392;SDS011;4736;52.508;13.422;2023-09-19T00:11:51;6.40;;;3.97;;
9392;SDS011;4736;52.508;13.422;2023-09-19T00:14:54;4.43;;;4.13;;
9392;SDS011;4736;52.508;13.422;2023-09-19T00:17:59;3.63;;;3.40;;
9392;SDS011;4736;52.508;13.422;2023-09-19T00:21:02;3.80;;;3.60;;
9392;SDS011;4736;52.508;13.422;2023-09-19T00:24:06;7.23;;;4.40;;
9392;SDS011;4736;52.508;13.422;2023-09-19T00:27:11;3.97;;;3.77;;
9392;SDS011;4736;52.508;13.422;2023-09-19T00:30:14;4.47;;;4.17;;
9392;SDS011;4736;52.508;13.422;2023-09-19T00:33:21;6.00;;;3.80;;
9392;SDS011;4736;52.508;13.422;2023-09-19T00:36:25;4.10;;;3.90;;
9392;SDS011;4736;52.508;13.422;2023-09-19T00:39:29;6.10;;;4.40;;
9392;SDS011;4736;52.508;13.422;2023-09-19T00:42:34;4.50;;;4.17;;
9392;SDS011;4736;52.508;13.422;2023-09-19T00:45:39;4.50;;;4.10;;
9392;SDS011;4736;52.508;13.422;2023-09-19T00:48:46;5.83;;;3.77;;
9392;SDS011;4736;52.508;13.422;2023-09-19T00:51:51;4.03;;;3.70;;
9392;SDS011;4736;52.508;13.422;2023-09-19T00:54:54;4.73;;;4.33;;
9392;SDS011;4736;52.508;13.422;2023-09-19T00:57:59;5.97;;;3.93;;
9392;SDS011;4736;52.508;13.422;2023-09-19T01:01:02;3.93;;;3.73;;
9392;SDS011;4736;52.508;13.422;2023-09-19T01:04:08;3.93;;;3.63;;
9392;SDS011;4736;52.508;13.422;2023-09-19T01:07:12;4.23;;;3.90;;
9392;SDS011;4736;52.508;13.422;2023-09-19T01:10:17;4.37;;;3.97;;
9392;SDS011;4736;52.508;13.422;2023-09-19T01:13:25;3.97;;;3.77;;
9392;SDS011;4736;52.508;13.422;2023-09-19T01:16:35;5.30;;;3.93;;
9392;SDS011;4736;52.508;13.422;2023-09-19T01:19:58;6.57;;;4.13;;
9392;SDS011;4736;52.508;13.422;2023-09-19T01:23:28;4.20;;;3.50;;
9392;SDS011;4736;52.508;13.422;2023-09-19T01:27:02;3.70;;;3.50;;
9392;SDS011;4736;52.508;13.422;2023-09-19T01:30:21;3.70;;;3.47;;
9392;SDS011;4736;52.508;13.422;2023-09-19T01:37:01;3.70;;;3.60;;
9392;SDS011;4736;52.508;13.422;2023-09-19T01:40:05;3.53;;;3.20;;
9392;SDS011;4736;52.508;13.422;2023-09-19T01:43:17;5.07;;;3.70;;
9392;SDS011;4736;52.508;13.422;2023-09-19T01:46:31;3.93;;;3.53;;
9392;SDS011;4736;52.508;13.422;2023-09-19T01:49:38;3.40;;;3.20;;
9392;SDS011;4736;52.508;13.422;2023-09-19T01:52:49;3.93;;;3.57;;
9392;SDS011;4736;52.508;13.422;2023-09-19T01:55:57;3.73;;;3.50;;
9392;SDS011;4736;52.508;13.422;2023-09-19T01:59:04;3.67;;;3.47;;
9392;SDS011;4736;52.508;13.422;2023-09-19T02:02:12;4.23;;;3.40;;
9392;SDS011;4736;52.508;13.422;2023-09-19T02:05:22;3.57;;;3.37;;
9392;SDS011;4736;52.508;13.422;2023-09-19T02:08:26;3.27;;;3.10;;
9392;SDS011;4736;52.508;13.422;2023-09-19T02:11:30;3.87;;;3.60;;
9392;SDS011;4736;52.508;13.422;2023-09-19T02:14:33;3.80;;;3.50;;
9392;SDS011;4736;52.508;13.422;2023-09-19T02:17:38;3.90;;;3.60;;
9392;SDS011;4736;52.508;13.422;2023-09-19T02:20:43;3.83;;;3.50;;
9392;SDS011;4736;52.508;13.422;2023-09-19T02:23:47;4.00;;;3.70;;
9392;SDS011;4736;52.508;13.422;2023-09-19T02:26:50;5.37;;;3.70;;
9392;SDS011;4736;52.508;13.422;2023-09-19T02:29:53;4.90;;;3.30;;
9392;SDS011;4736;52.508;13.422;2023-09-19T02:32:58;4.00;;;3.37;;
9392;SDS011;4736;52.508;13.422;2023-09-19T02:36:05;3.40;;;3.17;;
9392;SDS011;4736;52.508;13.422;2023-09-19T02:39:09;3.40;;;3.20;;
9392;SDS011;4736;52.508;13.422;2023-09-19T02:42:14;3.23;;;3.13;;
9392;SDS011;4736;52.508;13.422;2023-09-19T02:45:18;4.03;;;3.57;;
9392;SDS011;4736;52.508;13.422;2023-09-19T02:48:24;3.77;;;3.47;;
9392;SDS011;4736;52.508;13.422;2023-09-19T02:51:27;3.77;;;3.57;;
9392;SDS011;4736;52.508;13.422;2023-09-19T02:54:30;5.47;;;3.60;;
9392;SDS011;4736;52.508;13.422;2023-09-19T02:57:34;3.40;;;3.30;;
9392;SDS011;4736;52.508;13.422;2023-09-19T03:00:37;3.53;;;3.33;;
9392;SDS011;4736;52.508;13.422;2023-09-19T03:03:44;3.13;;;3.03;;
9392;SDS011;4736;52.508;13.422;2023-09-19T03:06:48;4.13;;;3.70;;
9392;SDS011;4736;52.508;13.422;2023-09-19T03:09:52;3.53;;;3.33;;
9392;SDS011;4736;52.508;13.422;2023-09-19T03:12:56;4.83;;;3.50;;
9392;SDS011;4736;52.508;13.422;2023-09-19T03:16:01;3.30;;;3.10;;
9392;SDS011;4736;52.508;13.422;2023-09-19T03:19:08;3.37;;;3.27;;
9392;SDS011;4736;52.508;13.422;2023-09-19T03:22:18;3.40;;;2.93;;
9392;SDS011;4736;52.508;13.422;2023-09-19T03:25:34;3.40;;;3.20;;
9392;SDS011;4736;52.508;13.422;2023-09-19T03:28:38;3.87;;;2.93;;
9392;SDS011;4736;52.508;13.422;2023-09-19T03:31:42;3.07;;;2.87;;
9392;SDS011;4736;52.508;13.422;2023-09-19T03:34:50;3.10;;;2.90;;
9392;SDS011;4736;52.508;13.422;2023-09-19T03:37:53;3.20;;;2.90;;
9392;SDS011;4736;52.508;13.422;2023-09-19T03:40:57;2.73;;;2.63;;
9392;SDS011;4736;52.508;13.422;2023-09-19T03:44:00;2.87;;;2.77;;
9392;SDS011;4736;52.508;13.422;2023-09-19T03:47:03;4.67;;;2.70;;
9392;SDS011;4736;52.508;13.422;2023-09-19T03:50:08;2.80;;;2.70;;
9392;SDS011;4736;52.508;13.422;2023-09-19T03:53:13;2.90;;;2.70;;
9392;SDS011;4736;52.508;13.422;2023-09-19T03:56:16;3.03;;;2.93;;
9392;SDS011;4736;52.508;13.422;2023-09-19T03:59:20;2.83;;;2.83;;
9392;SDS011;4736;52.508;13.422;2023-09-19T04:02:23;2.50;;;2.30;;
9392;SDS011;4736;52.508;13.422;2023-09-19T04:05:28;2.97;;;2.83;;
9392;SDS011;4736;52.508;13.422;2023-09-19T04:08:31;4.03;;;3.20;;
9392;SDS011;4736;52.508;13.422;2023-09-19T04:11:34;3.30;;;2.80;;
9392;SDS011;4736;52.508;13.422;2023-09-19T04:14:37;3.03;;;2.60;;
9392;SDS011;4736;52.508;13.422;2023-09-19T04:17:40;4.47;;;2.87;;
9392;SDS011;4736;52.508;13.422;2023-09-19T04:20:48;2.80;;;2.70;;
9392;SDS011;4736;52.508;13.422;2023-09-19T04:23:51;2.93;;;2.70;;
9392;SDS011;4736;52.508;13.422;2023-09-19T04:26:54;3.30;;;3.00;;
9392;SDS011;4736;52.508;13.422;2023-09-19T04:29:58;2.90;;;2.70;;
9392;SDS011;4736;52.508;13.422;2023-09-19T04:33:09;2.80;;;2.60;;
9392;SDS011;4736;52.508;13.422;2023-09-19T04:36:14;3.17;;;3.03;;
9392;SDS011;4736;52.508;13.422;2023-09-19T04:39:36;2.83;;;2.83;;
9392;SDS011;4736;52.508;13.422;2023-09-19T04:42:40;2.83;;;2.70;;
9392;SDS011;4736;52.508;13.422;2023-09-19T04:45:43;2.73;;;2.53;;
9392;SDS011;4736;52.508;13.422;2023-09-19T04:48:47;2.93;;;2.70;;
9392;SDS011;4736;52.508;13.422;2023-09-19T04:51:52;2.60;;;2.60;;
9392;SDS011;4736;52.508;13.422;2023-09-19T04:54:56;2.90;;;2.70;;
9392;SDS011;4736;52.508;13.422;2023-09-19T04:58:00;2.57;;;2.47;;
9392;SDS011;4736;52.508;13.422;2023-09-19T05:01:04;2.90;;;2.80;;
9392;SDS011;4736;52.508;13.422;2023-09-19T05:04:08;2.27;;;2.27;;
9392;SDS011;4736;52.508;13.422;2023-09-19T05:07:13;5.20;;;2.47;;
9392;SDS011;4736;52.508;13.422;2023-09-19T05:10:16;2.20;;;2.20;;
9392;SDS011;4736;52.508;13.422;2023-09-19T05:13:20;2.83;;;2.70;;
9392;SDS011;4736;52.508;13.422;2023-09-19T05:16:24;2.93;;;2.40;;
9392;SDS011;4736;52.508;13.422;2023-09-19T05:19:28;3.10;;;2.90;;
9392;SDS011;4736;52.508;13.422;2023-09-19T05:22:32;3.17;;;2.70;;
9392;SDS011;4736;52.508;13.422;2023-09-19T05:25:36;4.60;;;2.90;;
9392;SDS011;4736;52.508;13.422;2023-09-19T05:28:40;3.00;;;2.87;;
9392;SDS011;4736;52.508;13.422;2023-09-19T05:31:44;2.60;;;2.40;;
9392;SDS011;4736;52.508;13.422;2023-09-19T05:34:48;2.87;;;2.67;;
9392;SDS011;4736;52.508;13.422;2023-09-19T05:37:56;3.07;;;2.87;;
9392;SDS011;4736;52.508;13.422;2023-09-19T05:40:59;3.07;;;2.80;;
9392;SDS011;4736;52.508;13.422;2023-09-19T05:44:03;3.27;;;3.07;;
9392;SDS011;4736;52.508;13.422;2023-09-19T05:47:08;3.40;;;3.10;;
9392;SDS011;4736;52.508;13.422;2023-09-19T05:50:12;3.17;;;2.90;;
9392;SDS011;4736;52.508;13.422;2023-09-19T05:53:17;2.90;;;2.80;;
9392;SDS011;4736;52.508;13.422;2023-09-19T05:56:20;3.63;;;2.80;;
9392;SDS011;4736;52.508;13.422;2023-09-19T05:59:24;4.70;;;3.30;;
9392;SDS011;4736;52.508;13.422;2023-09-19T06:02:27;4.03;;;3.07;;
9392;SDS011;4736;52.508;13.422;2023-09-19T06:05:32;4.03;;;2.93;;
9392;SDS011;4736;52.508;13.422;2023-09-19T06:08:36;4.27;;;3.00;;
9392;SDS011;4736;52.508;13.422;2023-09-19T06:11:41;7.40;;;3.40;;
9392;SDS011;4736;52.508;13.422;2023-09-19T06:14:44;4.47;;;2.80;;
9392;SDS011;4736;52.508;13.422;2023-09-19T06:17:47;3.07;;;2.97;;
9392;SDS011;4736;52.508;13.422;2023-09-19T06:20:51;3.30;;;3.10;;
9392;SDS011;4736;52.508;13.422;2023-09-19T06:23:56;3.53;;;3.20;;
9392;SDS011;4736;52.508;13.422;2023-09-19T06:26:59;4.77;;;3.20;;
9392;SDS011;4736;52.508;13.422;2023-09-19T06:30:03;4.53;;;3.57;;
9392;SDS011;4736;52.508;13.422;2023-09-19T06:33:09;3.17;;;2.90;;
9392;SDS011;4736;52.508;13.422;2023-09-19T06:36:18;3.43;;;3.10;;
9392;SDS011;4736;52.508;13.422;2023-09-19T06:39:23;6.07;;;3.30;;
9392;SDS011;4736;52.508;13.422;2023-09-19T06:42:27;4.33;;;3.37;;
9392;SDS011;4736;52.508;13.422;2023-09-19T06:45:30;3.13;;;3.03;;
9392;SDS011;4736;52.508;13.422;2023-09-19T06:48:34;3.43;;;3.20;;
9392;SDS011;4736;52.508;13.422;2023-09-19T06:51:37;4.53;;;3.40;;
9392;SDS011;4736;52.508;13.422;2023-09-19T06:54:41;3.30;;;3.10;;
9392;SDS011;4736;52.508;13.422;2023-09-19T06:57:44;4.07;;;3.70;;
9392;SDS011;4736;52.508;13.422;2023-09-19T07:00:48;3.97;;;3.27;;
9392;SDS011;4736;52.508;13.422;2023-09-19T07:03:51;3.90;;;3.37;;
9392;SDS011;4736;52.508;13.422;2023-09-19T07:06:55;3.27;;;3.07;;
9392;SDS011;4736;52.508;13.422;2023-09-19T07:09:59;4.77;;;3.53;;
9392;SDS011;4736;52.508;13.422;2023-09-19T07:13:03;3.43;;;3.17;;
9392;SDS011;4736;52.508;13.422;2023-09-19T07:16:07;4.13;;;3.30;;
9392;SDS011;4736;52.508;13.422;2023-09-19T07:19:11;4.27;;;2.80;;
9392;SDS011;4736;52.508;13.422;2023-09-19T07:22:16;3.63;;;3.43;;
9392;SDS011;4736;52.508;13.422;2023-09-19T07:25:20;3.57;;;3.17;;
9392;SDS011;4736;52.508;13.422;2023-09-19T07:28:24;2.67;;;2.63;;
9392;SDS011;4736;52.508;13.422;2023-09-19T07:31:27;3.13;;;2.93;;
9392;SDS011;4736;52.508;13.422;2023-09-19T07:34:31;3.30;;;3.10;;
9392;SDS011;4736;52.508;13.422;2023-09-19T07:37:34;4.53;;;3.00;;
9392;SDS011;4736;52.508;13.422;2023-09-19T07:40:39;3.40;;;3.10;;
9392;SDS011;4736;52.508;13.422;2023-09-19T07:43:42;6.50;;;3.53;;
9392;SDS011;4736;52.508;13.422;2023-09-19T07:46:45;3.70;;;3.13;;
9392;SDS011;4736;52.508;13.422;2023-09-19T07:49:52;5.40;;;3.90;;
9392;SDS011;4736;52.508;13.422;2023-09-19T07:52:57;6.20;;;5.50;;
9392;SDS011;4736;52.508;13.422;2023-09-19T07:56:08;3.77;;;3.60;;
9392;SDS011;4736;52.508;13.422;2023-09-19T07:59:12;4.03;;;3.70;;
9392;SDS011;4736;52.508;13.422;2023-09-19T08:02:15;5.90;;;4.00;;
9392;SDS011;4736;52.508;13.422;2023-09-19T08:05:19;3.97;;;3.60;;
9392;SDS011;4736;52.508;13.422;2023-09-19T08:08:24;7.67;;;3.70;;
9392;SDS011;4736;52.508;13.422;2023-09-19T08:11:28;5.53;;;3.77;;
9392;SDS011;4736;52.508;13.422;2023-09-19T08:14:32;4.03;;;3.60;;
9392;SDS011;4736;52.508;13.422;2023-09-19T08:17:35;3.70;;;3.40;;
9392;SDS011;4736;52.508;13.422;2023-09-19T08:20:39;5.47;;;3.80;;
9392;SDS011;4736;52.508;13.422;2023-09-19T08:23:43;5.17;;;3.90;;
9392;SDS011;4736;52.508;13.422;2023-09-19T08:26:48;5.97;;;3.47;;
9392;SDS011;4736;52.508;13.422;2023-09-19T08:29:52;4.57;;;3.60;;
9392;SDS011;4736;52.508;13.422;2023-09-19T08:32:56;3.60;;;3.30;;
9392;SDS011;4736;52.508;13.422;2023-09-19T08:36:00;3.83;;;3.60;;
9392;SDS011;4736;52.508;13.422;2023-09-19T08:39:05;4.23;;;3.77;;
9392;SDS011;4736;52.508;13.422;2023-09-19T08:42:11;4.40;;;4.00;;
9392;SDS011;4736;52.508;13.422;2023-09-19T08:45:14;4.43;;;4.00;;
9392;SDS011;4736;52.508;13.422;2023-09-19T08:48:20;9.60;;;3.83;;
9392;SDS011;4736;52.508;13.422;2023-09-19T08:51:27;4.47;;;4.10;;
9392;SDS011;4736;52.508;13.422;2023-09-19T08:54:37;4.07;;;3.80;;
9392;SDS011;4736;52.508;13.422;2023-09-19T08:57:44;7.77;;;3.90;;
9392;SDS011;4736;52.508;13.422;2023-09-19T09:00:50;4.23;;;3.83;;
9392;SDS011;4736;52.508;13.422;2023-09-19T09:03:56;9.30;;;4.23;;
9392;SDS011;4736;52.508;13.422;2023-09-19T09:06:59;4.17;;;3.63;;
9392;SDS011;4736;52.508;13.422;2023-09-19T09:10:05;5.23;;;3.70;;
9392;SDS011;4736;52.508;13.422;2023-09-19T09:13:10;4.07;;;3.87;;
9392;SDS011;4736;52.508;13.422;2023-09-19T09:16:15;3.70;;;3.50;;
9392;SDS011;4736;52.508;13.422;2023-09-19T09:19:21;3.87;;;3.67;;
9392;SDS011;4736;52.508;13.422;2023-09-19T09:22:26;4.13;;;3.73;;
9392;SDS011;4736;52.508;13.422;2023-09-19T09:25:48;4.17;;;3.77;;
9392;SDS011;4736;52.508;13.422;2023-09-19T09:28:58;3.93;;;3.63;;
9392;SDS011;4736;52.508;13.422;2023-09-19T09:32:15;7.20;;;3.77;;
9392;SDS011;4736;52.508;13.422;2023-09-19T09:35:21;4.27;;;3.87;;
9392;SDS011;4736;52.508;13.422;2023-09-19T09:38:24;5.77;;;3.80;;
9392;SDS011;4736;52.508;13.422;2023-09-19T09:41:35;4.93;;;4.00;;
9392;SDS011;4736;52.508;13.422;2023-09-19T09:44:42;3.93;;;3.63;;
9392;SDS011;4736;52.508;13.422;2023-09-19T09:47:45;4.30;;;4.00;;
9392;SDS011;4736;52.508;13.422;2023-09-19T09:50:55;6.03;;;3.57;;
9392;SDS011;4736;52.508;13.422;2023-09-19T09:54:09;4.47;;;3.97;;
9392;SDS011;4736;52.508;13.422;2023-09-19T09:57:13;4.73;;;4.10;;
9392;SDS011;4736;52.508;13.422;2023-09-19T10:00:20;4.37;;;3.80;;
9392;SDS011;4736;52.508;13.422;2023-09-19T10:03:30;5.53;;;4.20;;
9392;SDS011;4736;52.508;13.422;2023-09-19T10:06:40;6.33;;;4.27;;
9392;SDS011;4736;52.508;13.422;2023-09-19T10:09:48;6.63;;;3.80;;
9392;SDS011;4736;52.508;13.422;2023-09-19T10:12:52;4.43;;;3.73;;
9392;SDS011;4736;52.508;13.422;2023-09-19T10:16:06;5.87;;;4.17;;
9392;SDS011;4736;52.508;13.422;2023-09-19T10:19:16;3.47;;;3.03;;
9392;SDS011;4736;52.508;13.422;2023-09-19T10:22:26;4.90;;;3.97;;
9392;SDS011;4736;52.508;13.422;2023-09-19T10:25:33;4.30;;;3.90;;
9392;SDS011;4736;52.508;13.422;2023-09-19T10:28:39;4.23;;;3.87;;
9392;SDS011;4736;52.508;13.422;2023-09-19T10:31:44;3.47;;;3.10;;
9392;SDS011;4736;52.508;13.422;2023-09-19T10:34:52;6.47;;;3.93;;
9392;SDS011;4736;52.508;13.422;2023-09-19T10:37:57;5.10;;;3.73;;
9392;SDS011;4736;52.508;13.422;2023-09-19T10:41:04;6.03;;;4.20;;
9392;SDS011;4736;52.508;13.422;2023-09-19T10:44:08;4.20;;;3.83;;
9392;SDS011;4736;52.508;13.422;2023-09-19T10:47:12;5.97;;;3.80;;
9392;SDS011;4736;52.508;13.422;2023-09-19T10:50:20;4.57;;;3.80;;
9392;SDS011;4736;52.508;13.422;2023-09-19T10:53:24;5.23;;;3.93;;
9392;SDS011;4736;52.508;13.422;2023-09-19T10:56:30;5.20;;;3.70;;
9392;SDS011;4736;52.508;13.422;2023-09-19T10:59:38;3.77;;;3.47;;
9392;SDS011;4736;52.508;13.422;2023-09-19T11:03:23;12.67;;;4.07;;
9392;SDS011;4736;52.508;13.422;2023-09-19T11:06:32;5.77;;;3.97;;
9392;SDS011;4736;52.508;13.422;2023-09-19T11:09:44;5.60;;;3.90;;
9392;SDS011;4736;52.508;13.422;2023-09-19T11:12:49;4.67;;;3.23;;
9392;SDS011;4736;52.508;13.422;2023-09-19T11:19:25;4.17;;;3.83;;
9392;SDS011;4736;52.508;13.422;2023-09-19T11:23:25;8.27;;;4.10;;
9392;SDS011;4736;52.508;13.422;2023-09-19T11:26:40;7.87;;;3.77;;
9392;SDS011;4736;52.508;13.422;2023-09-19T11:29:49;5.50;;;3.83;;
9392;SDS011;4736;52.508;13.422;2023-09-19T11:33:38;6.53;;;3.57;;
9392;SDS011;4736;52.508;13.422;2023-09-19T11:36:47;7.30;;;3.97;;
9392;SDS011;4736;52.508;13.422;2023-09-19T11:40:05;5.03;;;3.10;;
9392;SDS011;4736;52.508;13.422;2023-09-19T11:43:30;4.43;;;3.63;;
9392;SDS011;4736;52.508;13.422;2023-09-19T11:46:51;5.03;;;3.40;;
9392;SDS011;4736;52.508;13.422;2023-09-19T11:49:57;5.60;;;3.50;;
9392;SDS011;4736;52.508;13.422;2023-09-19T11:53:03;3.10;;;2.80;;
9392;SDS011;4736;52.508;13.422;2023-09-19T11:56:07;5.30;;;3.97;;
9392;SDS011;4736;52.508;13.422;2023-09-19T11:59:11;3.50;;;3.20;;
9392;SDS011;4736;52.508;13.422;2023-09-19T12:02:27;3.97;;;3.37;;
9392;SDS011;4736;52.508;13.422;2023-09-19T12:05:42;5.43;;;3.20;;
9392;SDS011;4736;52.508;13.422;2023-09-19T12:08:46;6.10;;;3.20;;
9392;SDS011;4736;52.508;13.422;2023-09-19T12:11:50;3.23;;;2.97;;
9392;SDS011;4736;52.508;13.422;2023-09-19T12:14:53;3.40;;;2.80;;
9392;SDS011;4736;52.508;13.422;2023-09-19T12:18:00;3.50;;;3.20;;
9392;SDS011;4736;52.508;13.422;2023-09-19T12:21:07;4.83;;;3.00;;
9392;SDS011;4736;52.508;13.422;2023-09-19T12:24:13;5.90;;;3.20;;
9392;SDS011;4736;52.508;13.422;2023-09-19T12:27:20;3.90;;;3.07;;
9392;SDS011;4736;52.508;13.422;2023-09-19T12:30:27;4.00;;;2.93;;
9392;SDS011;4736;52.508;13.422;2023-09-19T12:33:34;7.80;;;2.70;;
9392;SDS011;4736;52.508;13.422;2023-09-19T12:36:40;2.97;;;2.70;;
9392;SDS011;4736;52.508;13.422;2023-09-19T12:39:43;4.60;;;2.60;;
9392;SDS011;4736;52.508;13.422;2023-09-19T12:42:50;2.97;;;2.60;;
9392;SDS011;4736;52.508;13.422;2023-09-19T12:45:56;3.37;;;2.47;;
9392;SDS011;4736;52.508;13.422;2023-09-19T12:49:16;3.30;;;2.40;;
9392;SDS011;4736;52.508;13.422;2023-09-19T12:52:22;2.57;;;2.47;;
9392;SDS011;4736;52.508;13.422;2023-09-19T12:55:28;3.57;;;3.23;;
9392;SDS011;4736;52.508;13.422;2023-09-19T12:58:34;4.23;;;2.67;;
9392;SDS011;4736;52.508;13.422;2023-09-19T13:01:50;3.53;;;2.90;;
9392;SDS011;4736;52.508;13.422;2023-09-19T13:05:07;4.80;;;2.90;;
9392;SDS011;4736;52.508;13.422;2023-09-19T13:08:18;3.30;;;3.10;;
9392;SDS011;4736;52.508;13.422;2023-09-19T13:11:35;4.57;;;2.90;;
9392;SDS011;4736;52.508;13.422;2023-09-19T13:14:41;2.73;;;2.57;;
9392;SDS011;4736;52.508;13.422;2023-09-19T13:17:48;4.20;;;2.77;;
9392;SDS011;4736;52.508;13.422;2023-09-19T13:21:05;3.00;;;2.80;;
9392;SDS011;4736;52.508;13.422;2023-09-19T13:24:20;8.67;;;3.10;;
9392;SDS011;4736;52.508;13.422;2023-09-19T13:27:24;3.97;;;2.60;;
9392;SDS011;4736;52.508;13.422;2023-09-19T13:30:29;5.83;;;3.23;;
9392;SDS011;4736;52.508;13.422;2023-09-19T13:33:35;3.60;;;2.90;;
9392;SDS011;4736;52.508;13.422;2023-09-19T13:36:44;3.03;;;2.80;;
9392;SDS011;4736;52.508;13.422;2023-09-19T13:39:51;3.03;;;2.73;;
9392;SDS011;4736;52.508;13.422;2023-09-19T13:42:55;5.47;;;3.10;;
9392;SDS011;4736;52.508;13.422;2023-09-19T13:45:58;5.97;;;2.50;;
9392;SDS011;4736;52.508;13.422;2023-09-19T13:49:01;5.73;;;2.93;;
9392;SDS011;4736;52.508;13.422;2023-09-19T13:52:05;5.33;;;2.83;;
9392;SDS011;4736;52.508;13.422;2023-09-19T13:55:10;4.53;;;2.90;;
9392;SDS011;4736;52.508;13.422;2023-09-19T13:58:16;6.07;;;4.30;;
9392;SDS011;4736;52.508;13.422;2023-09-19T14:01:19;3.33;;;2.83;;
9392;SDS011;4736;52.508;13.422;2023-09-19T14:04:23;3.67;;;2.90;;
9392;SDS011;4736;52.508;13.422;2023-09-19T14:07:26;4.77;;;3.00;;
9392;SDS011;4736;52.508;13.422;2023-09-19T14:10:30;5.60;;;2.63;;
9392;SDS011;4736;52.508;13.422;2023-09-19T14:13:34;3.00;;;2.80;;
9392;SDS011;4736;52.508;13.422;2023-09-19T14:16:37;3.60;;;2.80;;
9392;SDS011;4736;52.508;13.422;2023-09-19T14:19:42;5.60;;;2.60;;
9392;SDS011;4736;52.508;13.422;2023-09-19T14:22:46;2.97;;;2.77;;
9392;SDS011;4736;52.508;13.422;2023-09-19T14:25:51;2.80;;;2.70;;
9392;SDS011;4736;52.508;13.422;2023-09-19T14:28:55;3.50;;;3.20;;
9392;SDS011;4736;52.508;13.422;2023-09-19T14:32:00;3.27;;;2.93;;
9392;SDS011;4736;52.508;13.422;2023-09-19T14:35:04;3.07;;;2.87;;
9392;SDS011;4736;52.508;13.422;2023-09-19T14:38:08;2.47;;;2.27;;
9392;SDS011;4736;52.508;13.422;2023-09-19T14:41:12;4.83;;;2.60;;
9392;SDS011;4736;52.508;13.422;2023-09-19T14:44:16;3.30;;;3.00;;
9392;SDS011;4736;52.508;13.422;2023-09-19T14:47:19;4.30;;;2.87;;
9392;SDS011;4736;52.508;13.422;2023-09-19T14:50:25;4.27;;;3.80;;
9392;SDS011;4736;52.508;13.422;2023-09-19T14:53:28;4.30;;;2.90;;
9392;SDS011;4736;52.508;13.422;2023-09-19T14:56:33;4.83;;;3.07;;
9392;SDS011;4736;52.508;13.422;2023-09-19T14:59:36;3.60;;;2.97;;
9392;SDS011;4736;52.508;13.422;2023-09-19T15:02:39;2.60;;;2.40;;
9392;SDS011;4736;52.508;13.422;2023-09-19T15:05:43;2.80;;;2.60;;
9392;SDS011;4736;52.508;13.422;2023-09-19T15:08:47;3.83;;;3.20;;
9392;SDS011;4736;52.508;13.422;2023-09-19T15:11:55;3.10;;;2.60;;
9392;SDS011;4736;52.508;13.422;2023-09-19T15:14:58;3.27;;;3.10;;
9392;SDS011;4736;52.508;13.422;2023-09-19T15:18:02;2.70;;;2.53;;
9392;SDS011;4736;52.508;13.422;2023-09-19T15:21:06;5.30;;;3.10;;
9392;SDS011;4736;52.508;13.422;2023-09-19T15:24:10;4.50;;;3.27;;
9392;SDS011;4736;52.508;13.422;2023-09-19T15:27:15;3.60;;;2.80;;
9392;SDS011;4736;52.508;13.422;2023-09-19T15:30:21;8.33;;;3.63;;
9392;SDS011;4736;52.508;13.422;2023-09-19T15:33:24;6.87;;;3.67;;
9392;SDS011;4736;52.508;13.422;2023-09-19T15:36:29;5.27;;;3.17;;
9392;SDS011;4736;52.508;13.422;2023-09-19T15:39:32;9.23;;;3.33;;
9392;SDS011;4736;52.508;13.422;2023-09-19T15:42:37;6.60;;;3.40;;
9392;SDS011;4736;52.508;13.422;2023-09-19T15:45:40;4.70;;;2.90;;
9392;SDS011;4736;52.508;13.422;2023-09-19T15:48:43;6.30;;;3.43;;
9392;SDS011;4736;52.508;13.422;2023-09-19T15:51:47;3.90;;;3.03;;
9392;SDS011;4736;52.508;13.422;2023-09-19T15:54:50;5.33;;;3.20;;
9392;SDS011;4736;52.508;13.422;2023-09-19T15:57:54;3.37;;;3.07;;
9392;SDS011;4736;52.508;13.422;2023-09-19T16:00:58;5.00;;;3.13;;
9392;SDS011;4736;52.508;13.422;2023-09-19T16:04:07;5.27;;;3.23;;
9392;SDS011;4736;52.508;13.422;2023-09-19T16:07:10;4.17;;;3.27;;
9392;SDS011;4736;52.508;13.422;2023-09-19T16:10:14;3.00;;;2.80;;
9392;SDS011;4736;52.508;13.422;2023-09-19T16:13:18;3.27;;;2.93;;
9392;SDS011;4736;52.508;13.422;2023-09-19T16:16:22;3.87;;;3.00;;
9392;SDS011;4736;52.508;13.422;2023-09-19T16:19:26;3.30;;;3.10;;
9392;SDS011;4736;52.508;13.422;2023-09-19T16:22:30;3.83;;;3.50;;
9392;SDS011;4736;52.508;13.422;2023-09-19T16:25:33;6.37;;;3.40;;
9392;SDS011;4736;52.508;13.422;2023-09-19T16:28:38;4.57;;;3.27;;
9392;SDS011;4736;52.508;13.422;2023-09-19T16:31:42;4.33;;;3.40;;
9392;SDS011;4736;52.508;13.422;2023-09-19T16:34:46;3.77;;;3.30;;
9392;SDS011;4736;52.508;13.422;2023-09-19T16:37:49;5.00;;;3.53;;
9392;SDS011;4736;52.508;13.422;2023-09-19T16:40:52;3.93;;;3.17;;
9392;SDS011;4736;52.508;13.422;2023-09-19T16:43:57;7.13;;;3.47;;
9392;SDS011;4736;52.508;13.422;2023-09-19T16:47:01;4.77;;;3.77;;
9392;SDS011;4736;52.508;13.422;2023-09-19T16:50:05;3.43;;;3.23;;
9392;SDS011;4736;52.508;13.422;2023-09-19T16:53:09;4.77;;;3.33;;
9392;SDS011;4736;52.508;13.422;2023-09-19T16:56:12;3.27;;;3.10;;
9392;SDS011;4736;52.508;13.422;2023-09-19T16:59:19;7.07;;;5.57;;
9392;SDS011;4736;52.508;13.422;2023-09-19T17:02:25;4.73;;;3.43;;
9392;SDS011;4736;52.508;13.422;2023-09-19T17:05:31;3.93;;;3.63;;
9392;SDS011;4736;52.508;13.422;2023-09-19T17:08:34;4.50;;;3.87;;
9392;SDS011;4736;52.508;13.422;2023-09-19T17:11:37;6.37;;;3.70;;
9392;SDS011;4736;52.508;13.422;2023-09-19T17:14:42;6.43;;;3.80;;
9392;SDS011;4736;52.508;13.422;2023-09-19T17:17:45;12.13;;;4.23;;
9392;SDS011;4736;52.508;13.422;2023-09-19T17:20:48;4.83;;;3.70;;
9392;SDS011;4736;52.508;13.422;2023-09-19T17:23:51;4.77;;;3.80;;
9392;SDS011;4736;52.508;13.422;2023-09-19T17:26:55;8.03;;;3.93;;
9392;SDS011;4736;52.508;13.422;2023-09-19T17:30:00;5.67;;;3.63;;
9392;SDS011;4736;52.508;13.422;2023-09-19T17:33:06;3.93;;;3.53;;
9392;SDS011;4736;52.508;13.422;2023-09-19T17:36:10;4.10;;;3.80;;
9392;SDS011;4736;52.508;13.422;2023-09-19T17:39:15;7.73;;;4.17;;
9392;SDS011;4736;52.508;13.422;2023-09-19T17:42:18;9.67;;;4.60;;
9392;SDS011;4736;52.508;13.422;2023-09-19T17:45:23;4.40;;;4.10;;
9392;SDS011;4736;52.508;13.422;2023-09-19T17:48:26;4.10;;;3.70;;
9392;SDS011;4736;52.508;13.422;2023-09-19T17:51:29;6.63;;;4.20;;
9392;SDS011;4736;52.508;13.422;2023-09-19T17:54:32;6.20;;;4.50;;
9392;SDS011;4736;52.508;13.422;2023-09-19T17:57:36;6.20;;;4.77;;
9392;SDS011;4736;52.508;13.422;2023-09-19T18:00:41;4.97;;;4.47;;
9392;SDS011;4736;52.508;13.422;2023-09-19T18:03:46;7.07;;;5.40;;
9392;SDS011;4736;52.508;13.422;2023-09-19T18:06:57;5.43;;;4.00;;
9392;SDS011;4736;52.508;13.422;2023-09-19T18:10:00;8.00;;;4.43;;
9392;SDS011;4736;52.508;13.422;2023-09-19T18:13:05;7.27;;;5.80;;
9392;SDS011;4736;52.508;13.422;2023-09-19T18:16:13;5.97;;;4.90;;
9392;SDS011;4736;52.508;13.422;2023-09-19T18:19:34;8.83;;;4.63;;
9392;SDS011;4736;52.508;13.422;2023-09-19T18:22:37;9.13;;;4.47;;
9392;SDS011;4736;52.508;13.422;2023-09-19T18:25:40;4.50;;;4.10;;
9392;SDS011;4736;52.508;13.422;2023-09-19T18:28:43;5.07;;;4.20;;
9392;SDS011;4736;52.508;13.422;2023-09-19T18:31:48;4.67;;;4.27;;
9392;SDS011;4736;52.508;13.422;2023-09-19T18:34:51;3.87;;;3.57;;
9392;SDS011;4736;52.508;13.422;2023-09-19T18:37:55;3.97;;;3.73;;
9392;SDS011;4736;52.508;13.422;2023-09-19T18:40:58;4.40;;;3.87;;
9392;SDS011;4736;52.508;13.422;2023-09-19T18:44:01;6.53;;;4.37;;
9392;SDS011;4736;52.508;13.422;2023-09-19T18:47:05;4.33;;;3.73;;
9392;SDS011;4736;52.508;13.422;2023-09-19T18:50:09;5.77;;;4.10;;
9392;SDS011;4736;52.508;13.422;2023-09-19T18:53:12;5.40;;;3.80;;
9392;SDS011;4736;52.508;13.422;2023-09-19T18:56:15;4.50;;;4.10;;
9392;SDS011;4736;52.508;13.422;2023-09-19T18:59:19;4.83;;;4.37;;
9392;SDS011;4736;52.508;13.422;2023-09-19T19:02:25;9.27;;;4.10;;
9392;SDS011;4736;52.508;13.422;2023-09-19T19:05:30;4.03;;;3.73;;